• Join FlightAware (Why Join?)
  • Login
  • US Flag 
07:13PM EDT


 

Airport Tracker/Info


-or-


 

Live Flight TrackerFlight Track Log ✈ A6-EWE ✈ 17-Apr-2013 ✈ OMDB / DXB - KDFW

Flight Track Log - Related Links

Times and Time Zones

All times are in EDT time to prevent confusion due to time zone crossing. See the A6-EWE flight status page for this flight to view local times or setup timezone preferences in your user account.

Time Position Orientation Groundspeed Altitude Reporting Facility
EDT Latitude Longitude Course Direction KTS MPH feet Rate Location/Type
07:17PM 25.3060 55.2820 313° West 226 260 2,900  Level FlightAware
07:17PM 25.3180 55.2750 332° Northwest 236 272 3,200 1,440 Climbing FlightAware
07:18PM 25.3470 55.2570 331° Northwest 249 287 4,000 840 Climbing FlightAware
07:18PM 25.3710 55.2420 331° Northwest 249 287 4,000 2,400 Level FlightAware
07:18PM 25.4060 55.2210 332° Northwest 273 314 6,000 3,600 Climbing FlightAware
07:19PM 25.4240 55.2160 346° North 276 318 6,400 1,200 Climbing FlightAware
07:19PM 25.4520 55.2260 18° North 289 333 6,800 480 Climbing FlightAware
07:19PM 25.4850 55.2330 11° North 289 333 6,800  Level FlightAware
07:22PM 25.7199 55.1072 334° Northwest  Level Estimated
07:23PM 25.8349 55.0455 334° Northwest  Level Estimated
07:24PM 25.9499 54.9836 334° Northwest  Level Estimated
07:25PM 26.0648 54.9215 334° Northwest  Level Estimated
07:26PM 26.1798 54.8594 334° Northwest  Level Estimated
07:27PM 26.2946 54.7971 334° Northwest  Level Estimated
07:28PM 26.4095 54.7347 334° Northwest  Level Estimated
07:29PM 26.5244 54.6722 334° Northwest  Level Estimated
07:30PM 26.6392 54.6096 334° Northwest  Level Estimated
07:31PM 26.7540 54.5468 334° Northwest  Level Estimated
07:32PM 26.8687 54.4839 334° Northwest  Level Estimated
07:33PM 26.9835 54.4209 334° Northwest  Level Estimated
07:34PM 27.0982 54.3577 334° Northwest  Level Estimated
07:35PM 27.2129 54.2945 334° Northwest  Level Estimated
07:36PM 27.3275 54.2311 334° Northwest  Level Estimated
07:37PM 27.4422 54.1675 334° Northwest  Level Estimated
07:38PM 27.5567 54.1039 334° Northwest  Level Estimated
07:39PM 27.6713 54.0400 334° Northwest  Level Estimated
07:40PM 27.7859 53.9761 334° Northwest  Level Estimated
07:41PM 27.9004 53.9120 334° Northwest  Level Estimated
07:42PM 28.0149 53.8478 334° Northwest  Level Estimated
07:43PM 28.1293 53.7835 334° Northwest  Level Estimated
07:44PM 28.2437 53.7190 334° Northwest  Level Estimated
07:45PM 28.3581 53.6544 334° Northwest  Level Estimated
07:46PM 28.4725 53.5896 334° Northwest  Level Estimated
07:47PM 28.5868 53.5247 334° Northwest  Level Estimated
07:48PM 28.7011 53.4597 333° Northwest  Level Estimated
07:49PM 28.8153 53.3945 333° Northwest  Level Estimated
07:50PM 28.9296 53.3292 333° Northwest  Level Estimated
07:51PM 29.0438 53.2637 333° Northwest  Level Estimated
07:52PM 29.1579 53.1981 333° Northwest  Level Estimated
07:53PM 29.2721 53.1323 333° Northwest  Level Estimated
07:54PM 29.3862 53.0664 333° Northwest  Level Estimated
07:55PM 29.5003 53.0003 333° Northwest  Level Estimated
07:56PM 29.6143 52.9341 333° Northwest  Level Estimated
07:57PM 29.7283 52.8678 333° Northwest  Level Estimated
07:58PM 29.8423 52.8013 333° Northwest  Level Estimated
07:59PM 29.9562 52.7346 333° Northwest  Level Estimated
08:00PM 30.0701 52.6678 333° Northwest  Level Estimated
08:01PM 30.1840 52.6008 333° Northwest  Level Estimated
08:02PM 30.2978 52.5337 333° Northwest  Level Estimated
08:03PM 30.4116 52.4664 333° Northwest  Level Estimated
08:04PM 30.5254 52.3990 333° Northwest  Level Estimated
08:05PM 30.6391 52.3314 333° Northwest  Level Estimated
08:06PM 30.7528 52.2636 333° Northwest  Level Estimated
08:07PM 30.8665 52.1957 333° Northwest  Level Estimated
08:08PM 30.9801 52.1276 333° Northwest  Level Estimated
08:09PM 31.0937 52.0594 333° Northwest  Level Estimated
08:10PM 31.2073 51.9910 333° Northwest  Level Estimated
08:11PM 31.3208 51.9224 333° Northwest  Level Estimated
08:12PM 31.4343 51.8537 333° Northwest  Level Estimated
08:13PM 31.5477 51.7848 333° Northwest  Level Estimated
08:14PM 31.6611 51.7157 333° Northwest  Level Estimated
08:15PM 31.7745 51.6465 333° Northwest  Level Estimated
08:16PM 31.8878 51.5771 333° Northwest  Level Estimated
08:17PM 32.0011 51.5075 332° Northwest  Level Estimated
08:18PM 32.1144 51.4378 332° Northwest  Level Estimated
08:19PM 32.2276 51.3679 332° Northwest  Level Estimated
08:20PM 32.3408 51.2978 332° Northwest  Level Estimated
08:21PM 32.4539 51.2275 332° Northwest  Level Estimated
08:22PM 32.5671 51.1571 332° Northwest  Level Estimated
08:23PM 32.6801 51.0864 332° Northwest  Level Estimated
08:24PM 32.7932 51.0156 332° Northwest  Level Estimated
08:25PM 32.9061 50.9447 332° Northwest  Level Estimated
08:26PM 33.0191 50.8735 332° Northwest  Level Estimated
08:27PM 33.1320 50.8022 332° Northwest  Level Estimated
08:28PM 33.2449 50.7306 332° Northwest  Level Estimated
08:29PM 33.3577 50.6589 332° Northwest  Level Estimated
08:30PM 33.4705 50.5870 332° Northwest  Level Estimated
08:31PM 33.5832 50.5149 332° Northwest  Level Estimated
08:32PM 33.6959 50.4426 332° Northwest  Level Estimated
08:33PM 33.8086 50.3702 332° Northwest  Level Estimated
08:34PM 33.9212 50.2975 332° Northwest  Level Estimated
08:35PM 34.0337 50.2247 332° Northwest  Level Estimated
08:36PM 34.1463 50.1516 332° Northwest  Level Estimated
08:37PM 34.2588 50.0784 332° Northwest  Level Estimated
08:38PM 34.3712 50.0049 332° Northwest  Level Estimated
08:39PM 34.4836 49.9313 332° Northwest  Level Estimated
08:40PM 34.5959 49.8575 332° Northwest  Level Estimated
08:41PM 34.7082 49.7834 332° Northwest  Level Estimated
08:42PM 34.8205 49.7092 332° Northwest  Level Estimated
08:43PM 34.9327 49.6348 331° Northwest  Level Estimated
08:44PM 35.0449 49.5601 331° Northwest  Level Estimated
08:45PM 35.1570 49.4853 331° Northwest  Level Estimated
08:46PM 35.2691 49.4102 331° Northwest  Level Estimated
08:47PM 35.3811 49.3350 331° Northwest  Level Estimated
08:48PM 35.4931 49.2595 331° Northwest  Level Estimated
08:49PM 35.6051 49.1838 331° Northwest  Level Estimated
08:50PM 35.7170 49.1079 331° Northwest  Level Estimated
08:51PM 35.8288 49.0318 331° Northwest  Level Estimated
08:52PM 35.9406 48.9555 331° Northwest  Level Estimated
08:53PM 36.0523 48.8790 331° Northwest  Level Estimated
08:54PM 36.1641 48.8022 331° Northwest  Level Estimated
08:55PM 36.2757 48.7253 331° Northwest  Level Estimated
08:56PM 36.3873 48.6481 331° Northwest  Level Estimated
08:57PM 36.4989 48.5707 331° Northwest  Level Estimated
08:58PM 36.6104 48.4930 331° Northwest  Level Estimated
08:59PM 36.7218 48.4152 331° Northwest  Level Estimated
09:00PM 36.8332 48.3371 331° Northwest  Level Estimated
09:01PM 36.9445 48.2588 331° Northwest  Level Estimated
09:02PM 37.0559 48.1802 331° Northwest  Level Estimated
09:03PM 37.1671 48.1014 331° Northwest  Level Estimated
09:04PM 37.2783 48.0224 331° Northwest  Level Estimated
09:05PM 37.3894 47.9432 330° Northwest  Level Estimated
09:06PM 37.5005 47.8637 330° Northwest  Level Estimated
09:07PM 37.6115 47.7840 330° Northwest  Level Estimated
09:08PM 37.7225 47.7040 330° Northwest  Level Estimated
09:09PM 37.8335 47.6238 330° Northwest  Level Estimated
09:10PM 37.9443 47.5434 330° Northwest  Level Estimated
09:11PM 38.0551 47.4627 330° Northwest  Level Estimated
09:12PM 38.1659 47.3818 330° Northwest  Level Estimated
09:13PM 38.2766 47.3006 330° Northwest  Level Estimated
09:14PM 38.3872 47.2192 330° Northwest  Level Estimated
09:15PM 38.4978 47.1376 330° Northwest  Level Estimated
09:16PM 38.6084 47.0556 330° Northwest  Level Estimated
09:17PM 38.7189 46.9735 330° Northwest  Level Estimated
09:18PM 38.8293 46.8910 330° Northwest  Level Estimated
09:19PM 38.9396 46.8084 330° Northwest  Level Estimated
09:20PM 39.0499 46.7254 330° Northwest  Level Estimated
09:21PM 39.1602 46.6422 330° Northwest  Level Estimated
09:22PM 39.2704 46.5588 330° Northwest  Level Estimated
09:23PM 39.3805 46.4751 330° Northwest  Level Estimated
09:24PM 39.4906 46.3911 330° Northwest  Level Estimated
09:25PM 39.6006 46.3068 329° Northwest  Level Estimated
09:26PM 39.7105 46.2223 329° Northwest  Level Estimated
09:27PM 39.8204 46.1375 329° Northwest  Level Estimated
09:28PM 39.9302 46.0524 329° Northwest  Level Estimated
09:29PM 40.0400 45.9671 329° Northwest  Level Estimated
09:30PM 40.1497 45.8815 329° Northwest  Level Estimated
09:31PM 40.2593 45.7956 329° Northwest  Level Estimated
09:32PM 40.3689 45.7095 329° Northwest  Level Estimated
09:33PM 40.4784 45.6230 329° Northwest  Level Estimated
09:34PM 40.5878 45.5363 329° Northwest  Level Estimated
09:35PM 40.6972 45.4493 329° Northwest  Level Estimated
09:36PM 40.8065 45.3620 329° Northwest  Level Estimated
09:37PM 40.9157 45.2744 329° Northwest  Level Estimated
09:38PM 41.0249 45.1865 329° Northwest  Level Estimated
09:39PM 41.1340 45.0983 329° Northwest  Level Estimated
09:40PM 41.2431 45.0099 329° Northwest  Level Estimated
09:41PM 41.3521 44.9211 329° Northwest  Level Estimated
09:42PM 41.4610 44.8321 329° Northwest  Level Estimated
09:43PM 41.5698 44.7427 328° Northwest  Level Estimated
09:44PM 41.6786 44.6531 328° Northwest  Level Estimated
09:45PM 41.7873 44.5631 328° Northwest  Level Estimated
09:46PM 41.8959 44.4729 328° Northwest  Level Estimated
09:47PM 42.0045 44.3823 328° Northwest  Level Estimated
09:48PM 42.1129 44.2914 328° Northwest  Level Estimated
09:49PM 42.2214 44.2002 328° Northwest  Level Estimated
09:50PM 42.3297 44.1087 328° Northwest  Level Estimated
09:51PM 42.4380 44.0169 328° Northwest  Level Estimated
09:52PM 42.5462 43.9247 328° Northwest  Level Estimated
09:53PM 42.6543 43.8323 328° Northwest  Level Estimated
09:54PM 42.7623 43.7395 328° Northwest  Level Estimated
09:55PM 42.8703 43.6464 328° Northwest  Level Estimated
09:56PM 42.9782 43.5530 328° Northwest  Level Estimated
09:57PM 43.0860 43.4592 328° Northwest  Level Estimated
09:58PM 43.1937 43.3651 328° Northwest  Level Estimated
09:59PM 43.3014 43.2707 327° Northwest  Level Estimated
10:00PM 43.4090 43.1759 327° Northwest  Level Estimated
10:01PM 43.5165 43.0808 327° Northwest  Level Estimated
10:02PM 43.6239 42.9854 327° Northwest  Level Estimated
10:03PM 43.7313 42.8896 327° Northwest  Level Estimated
10:04PM 43.8386 42.7935 327° Northwest  Level Estimated
10:05PM 43.9457 42.6970 327° Northwest  Level Estimated
10:06PM 44.0528 42.6002 327° Northwest  Level Estimated
10:07PM 44.1599 42.5031 327° Northwest  Level Estimated
10:08PM 44.2668 42.4055 327° Northwest  Level Estimated
10:09PM 44.3737 42.3077 327° Northwest  Level Estimated
10:10PM 44.4804 42.2094 327° Northwest  Level Estimated
10:11PM 44.5871 42.1109 327° Northwest  Level Estimated
10:12PM 44.6937 42.0119 327° Northwest  Level Estimated
10:13PM 44.8003 41.9126 327° Northwest  Level Estimated
10:14PM 44.9067 41.8129 326° Northwest  Level Estimated
10:15PM 45.0130 41.7128 326° Northwest  Level Estimated
10:16PM 45.1193 41.6124 326° Northwest  Level Estimated
10:17PM 45.2255 41.5116 326° Northwest  Level Estimated
10:18PM 45.3315 41.4104 326° Northwest  Level Estimated
10:19PM 45.4375 41.3089 326° Northwest  Level Estimated
10:20PM 45.5434 41.2069 326° Northwest  Level Estimated
10:21PM 45.6492 41.1046 326° Northwest  Level Estimated
10:22PM 45.7550 41.0019 326° Northwest  Level Estimated
10:23PM 45.8606 40.8988 326° Northwest  Level Estimated
10:24PM 45.9661 40.7953 326° Northwest  Level Estimated
10:25PM 46.0716 40.6914 326° Northwest  Level Estimated
10:26PM 46.1769 40.5871 326° Northwest  Level Estimated
10:27PM 46.2822 40.4824 326° Northwest  Level Estimated
10:28PM 46.3873 40.3774 325° Northwest  Level Estimated
10:29PM 46.4924 40.2719 325° Northwest  Level Estimated
10:30PM 46.5973 40.1660 325° Northwest  Level Estimated
10:31PM 46.7022 40.0597 325° Northwest  Level Estimated
10:32PM 46.8069 39.9529 325° Northwest  Level Estimated
10:33PM 46.9116 39.8458 325° Northwest  Level Estimated
10:34PM 47.0162 39.7382 325° Northwest  Level Estimated
10:35PM 47.1206 39.6302 325° Northwest  Level Estimated
10:36PM 47.2250 39.5218 325° Northwest  Level Estimated
10:37PM 47.3292 39.4130 325° Northwest  Level Estimated
10:38PM 47.4334 39.3037 325° Northwest  Level Estimated
10:39PM 47.5374 39.1940 325° Northwest  Level Estimated
10:40PM 47.6414 39.0839 324° Northwest  Level Estimated
10:41PM 47.7452 38.9733 324° Northwest  Level Estimated
10:42PM 47.8489 38.8623 324° Northwest  Level Estimated
10:43PM 47.9526 38.7508 324° Northwest  Level Estimated
10:44PM 48.0561 38.6389 324° Northwest  Level Estimated
10:45PM 48.1595 38.5266 324° Northwest  Level Estimated
10:46PM 48.2628 38.4137 324° Northwest  Level Estimated
10:47PM 48.3660 38.3005 324° Northwest  Level Estimated
10:48PM 48.4691 38.1867 324° Northwest  Level Estimated
10:49PM 48.5720 38.0726 324° Northwest  Level Estimated
10:50PM 48.6749 37.9579 324° Northwest  Level Estimated
10:51PM 48.7776 37.8428 324° Northwest  Level Estimated
10:52PM 48.8802 37.7272 323° Northwest  Level Estimated
10:53PM 48.9827 37.6111 323° Northwest  Level Estimated
10:54PM 49.0851 37.4945 323° Northwest  Level Estimated
10:55PM 49.1874 37.3775 323° Northwest  Level Estimated
10:56PM 49.2895 37.2600 323° Northwest  Level Estimated
10:57PM 49.3916 37.1420 323° Northwest  Level Estimated
10:58PM 49.4935 37.0235 323° Northwest  Level Estimated
10:59PM 49.5953 36.9045 323° Northwest  Level Estimated
11:00PM 49.6969 36.7850 323° Northwest  Level Estimated
11:01PM 49.7985 36.6650 323° Northwest  Level Estimated
11:02PM 49.8999 36.5445 323° Northwest  Level Estimated
11:03PM 50.0012 36.4235 322° Northwest  Level Estimated
11:04PM 50.1023 36.3020 322° Northwest  Level Estimated
11:05PM 50.2034 36.1800 322° Northwest  Level Estimated
11:06PM 50.3043 36.0574 322° Northwest  Level Estimated
11:07PM 50.4051 35.9344 322° Northwest  Level Estimated
11:08PM 50.5057 35.8108 322° Northwest  Level Estimated
11:09PM 50.6063 35.6867 322° Northwest  Level Estimated
11:10PM 50.7066 35.5620 322° Northwest  Level Estimated
11:11PM 50.8069 35.4368 322° Northwest  Level Estimated
11:12PM 50.9070 35.3111 322° Northwest  Level Estimated
11:13PM 51.0070 35.1849 322° Northwest  Level Estimated
11:14PM 51.1068 35.0580 321° Northwest  Level Estimated
11:15PM 51.2066 34.9307 321° Northwest  Level Estimated
11:16PM 51.3061 34.8028 321° Northwest  Level Estimated
11:17PM 51.4055 34.6743 321° Northwest  Level Estimated
11:18PM 51.5048 34.5453 321° Northwest  Level Estimated
11:19PM 51.6040 34.4157 321° Northwest  Level Estimated
11:20PM 51.7030 34.2856 321° Northwest  Level Estimated
11:21PM 51.8018 34.1549 321° Northwest  Level Estimated
11:22PM 51.9006 34.0235 321° Northwest  Level Estimated
11:23PM 51.9991 33.8917 321° Northwest  Level Estimated
11:24PM 52.0975 33.7592 320° Northwest  Level Estimated
11:25PM 52.1958 33.6262 320° Northwest  Level Estimated
11:26PM 52.2939 33.4925 320° Northwest  Level Estimated
11:27PM 52.3919 33.3583 320° Northwest  Level Estimated
11:28PM 52.4897 33.2235 320° Northwest  Level Estimated
11:29PM 52.5874 33.0881 320° Northwest  Level Estimated
11:30PM 52.6849 32.9521 320° Northwest  Level Estimated
11:31PM 52.7822 32.8154 320° Northwest  Level Estimated
11:32PM 52.8794 32.6782 320° Northwest  Level Estimated
11:33PM 52.9765 32.5403 319° Northwest  Level Estimated
11:34PM 53.0733 32.4019 319° Northwest  Level Estimated
11:35PM 53.1700 32.2627 319° Northwest  Level Estimated
11:36PM 53.2666 32.1230 319° Northwest  Level Estimated
11:37PM 53.3630 31.9826 319° Northwest  Level Estimated
11:38PM 53.4592 31.8416 319° Northwest  Level Estimated
11:39PM 53.5552 31.7000 319° Northwest  Level Estimated
11:40PM 53.6511 31.5577 319° Northwest  Level Estimated
11:41PM 53.7468 31.4148 319° Northwest  Level Estimated
11:42PM 53.8424 31.2712 318° Northwest  Level Estimated
11:43PM 53.9377 31.1269 318° Northwest  Level Estimated
11:44PM 54.0329 30.9820 318° Northwest  Level Estimated
11:45PM 54.1280 30.8365 318° Northwest  Level Estimated
11:46PM 54.2228 30.6903 318° Northwest  Level Estimated
11:47PM 54.3175 30.5433 318° Northwest  Level Estimated
11:48PM 54.4120 30.3958 318° Northwest  Level Estimated
11:49PM 54.5063 30.2475 318° Northwest  Level Estimated
11:50PM 54.6004 30.0985 318° Northwest  Level Estimated
11:51PM 54.6944 29.9489 317° Northwest  Level Estimated
11:52PM 54.7881 29.7986 317° Northwest  Level Estimated
11:53PM 54.8817 29.6475 317° Northwest  Level Estimated
11:54PM 54.9751 29.4958 317° Northwest  Level Estimated
11:55PM 55.0682 29.3434 317° Northwest  Level Estimated
11:56PM 55.1613 29.1902 317° Northwest  Level Estimated
11:57PM 55.2541 29.0364 317° Northwest  Level Estimated
11:58PM 55.3467 28.8818 317° Northwest  Level Estimated
11:59PM 55.4391 28.7264 316° Northwest  Level Estimated
12:00AM 55.5313 28.5704 316° Northwest  Level Estimated
12:01AM 55.6233 28.4136 316° Northwest  Level Estimated
12:02AM 55.7151 28.2561 316° Northwest  Level Estimated
12:03AM 55.8068 28.0979 316° Northwest  Level Estimated
12:04AM 55.8982 27.9389 316° Northwest  Level Estimated
12:05AM 55.9894 27.7791 316° Northwest  Level Estimated
12:06AM 56.0804 27.6186 315° West  Level Estimated
12:07AM 56.1712 27.4574 315° West  Level Estimated
12:08AM 56.2618 27.2953 315° West  Level Estimated
12:09AM 56.3521 27.1326 315° West  Level Estimated
12:10AM 56.4423 26.9690 315° West  Level Estimated
12:11AM 56.5322 26.8047 315° West  Level Estimated
12:12AM 56.6219 26.6395 315° West  Level Estimated
12:13AM 56.7114 26.4736 315° West  Level Estimated
12:14AM 56.8007 26.3069 314° West  Level Estimated
12:15AM 56.8898 26.1394 314° West  Level Estimated
12:16AM 56.9786 25.9711 314° West  Level Estimated
12:17AM 57.0672 25.8020 314° West  Level Estimated
12:18AM 57.1556 25.6322 314° West  Level Estimated
12:19AM 57.2437 25.4614 314° West  Level Estimated
12:20AM 57.3316 25.2899 314° West  Level Estimated
12:21AM 57.4193 25.1175 313° West  Level Estimated
12:22AM 57.5067 24.9444 313° West  Level Estimated
12:23AM 57.5939 24.7703 313° West  Level Estimated
12:24AM 57.6809 24.5955 313° West  Level Estimated
12:25AM 57.7676 24.4198 313° West  Level Estimated
12:26AM 57.8541 24.2433 313° West  Level Estimated
12:27AM 57.9403 24.0659 313° West  Level Estimated
12:28AM 58.0263 23.8877 312° West  Level Estimated
12:29AM 58.1120 23.7086 312° West  Level Estimated
12:30AM 58.1975 23.5286 312° West  Level Estimated
12:31AM 58.2827 23.3478 312° West  Level Estimated
12:32AM 58.3677 23.1661 312° West  Level Estimated
12:33AM 58.4524 22.9835 312° West  Level Estimated
12:34AM 58.5369 22.8001 311° West  Level Estimated
12:35AM 58.6211 22.6157 311° West  Level Estimated
12:36AM 58.7050 22.4305 311° West  Level Estimated
12:37AM 58.7886 22.2444 311° West  Level Estimated
12:38AM 58.8720 22.0574 311° West  Level Estimated
12:39AM 58.9551 21.8695 311° West  Level Estimated
12:40AM 59.0380 21.6807 311° West  Level Estimated
12:41AM 59.1205 21.4909 310° West  Level Estimated
12:42AM 59.2028 21.3003 310° West  Level Estimated
12:43AM 59.2848 21.1087 310° West  Level Estimated
12:44AM 59.3666 20.9162 310° West  Level Estimated
12:45AM 59.4480 20.7228 310° West  Level Estimated
12:46AM 59.5291 20.5285 310° West  Level Estimated
12:47AM 59.6100 20.3332 309° West  Level Estimated
12:48AM 59.6906 20.1369 309° West  Level Estimated
12:49AM 59.7708 19.9398 309° West  Level Estimated
12:50AM 59.8508 19.7416 309° West  Level Estimated
12:51AM 59.9305 19.5426 309° West  Level Estimated
12:52AM 60.0099 19.3425 308° West  Level Estimated
12:53AM 60.0890 19.1416 308° West  Level Estimated
12:54AM 60.1677 18.9396 308° West  Level Estimated
12:55AM 60.2462 18.7367 308° West  Level Estimated
12:56AM 60.3243 18.5328 308° West  Level Estimated
12:57AM 60.4022 18.3279 308° West  Level Estimated
12:58AM 60.4797 18.1220 307° West  Level Estimated
12:59AM 60.5569 17.9152 307° West  Level Estimated
01:00AM 60.6338 17.7074 307° West  Level Estimated
01:01AM 60.7103 17.4986 307° West  Level Estimated
01:02AM 60.7865 17.2887 307° West  Level Estimated
01:03AM 60.8624 17.0779 307° West  Level Estimated
01:04AM 60.9380 16.8661 306° West  Level Estimated
01:05AM 61.0132 16.6533 306° West  Level Estimated
01:06AM 61.0882 16.4395 306° West  Level Estimated
01:07AM 61.1627 16.2246 306° West  Level Estimated
01:08AM 61.2369 16.0088 306° West  Level Estimated
01:09AM 61.3108 15.7919 305° West  Level Estimated
01:10AM 61.3843 15.5740 305° West  Level Estimated
01:11AM 61.4575 15.3551 305° West  Level Estimated
01:12AM 61.5303 15.1351 305° West  Level Estimated
01:13AM 61.6028 14.9142 305° West  Level Estimated
01:14AM 61.6749 14.6922 304° West  Level Estimated
01:15AM 61.7466 14.4691 304° West  Level Estimated
01:16AM 61.8180 14.2450 304° West  Level Estimated
01:17AM 61.8890 14.0199 304° West  Level Estimated
01:18AM 61.9597 13.7937 304° West  Level Estimated
01:19AM 62.0300 13.5665 303° West  Level Estimated
01:20AM 62.0999 13.3382 303° West  Level Estimated
01:21AM 62.1694 13.1089 303° West  Level Estimated
01:22AM 62.2385 12.8785 303° West  Level Estimated
01:23AM 62.3073 12.6471 303° West  Level Estimated
01:24AM 62.3757 12.4146 302° West  Level Estimated
01:25AM 62.4436 12.1810 302° West  Level Estimated
01:26AM 62.5112 11.9464 302° West  Level Estimated
01:27AM 62.5784 11.7108 302° West  Level Estimated
01:28AM 62.6452 11.4740 302° West  Level Estimated
01:29AM 62.7116 11.2362 301° West  Level Estimated
01:30AM 62.7776 10.9973 301° West  Level Estimated
01:31AM 62.8432 10.7574 301° West  Level Estimated
01:32AM 62.9084 10.5164 301° West  Level Estimated
01:33AM 62.9731 10.2743 301° West  Level Estimated
01:34AM 63.0375 10.0312 300° West  Level Estimated
01:35AM 63.1014 9.7869 300° West  Level Estimated
01:36AM 63.1649 9.5416 300° West  Level Estimated
01:37AM 63.2280 9.2953 300° West  Level Estimated
01:38AM 63.2907 9.0478 299° West  Level Estimated
01:39AM 63.3529 8.7993 299° West  Level Estimated
01:40AM 63.4147 8.5497 299° West  Level Estimated
01:41AM 63.4760 8.2990 299° West  Level Estimated
01:42AM 63.5369 8.0473 299° West  Level Estimated
01:43AM 63.5974 7.7945 298° West  Level Estimated
01:44AM 63.6574 7.5406 298° West  Level Estimated
01:45AM 63.7170 7.2856 298° West  Level Estimated
01:46AM 63.7761 7.0296 298° West  Level Estimated
01:47AM 63.8348 6.7725 297° West  Level Estimated
01:48AM 63.8930 6.5143 297° West  Level Estimated
01:49AM 63.9507 6.2550 297° West  Level Estimated
01:50AM 64.0080 5.9947 297° West  Level Estimated
01:51AM 64.0648 5.7333 297° West  Level Estimated
01:52AM 64.1211 5.4709 296° West  Level Estimated
01:53AM 64.1770 5.2074 296° West  Level Estimated
01:54AM 64.2324 4.9429 296° West  Level Estimated
01:55AM 64.2873 4.6772 296° West  Level Estimated
01:56AM 64.3418 4.4106 295° West  Level Estimated
01:57AM 64.3957 4.1428 295° West  Level Estimated
01:58AM 64.4491 3.8741 295° West  Level Estimated
01:59AM 64.5021 3.6042 295° West  Level Estimated
02:00AM 64.5546 3.3334 294° West  Level Estimated
02:01AM 64.6065 3.0615 294° West  Level Estimated
02:02AM 64.6580 2.7885 294° West  Level Estimated
02:03AM 64.7089 2.5146 294° West  Level Estimated
02:04AM 64.7594 2.2396 293° West  Level Estimated
02:05AM 64.8093 1.9636 293° West  Level Estimated
02:06AM 64.8587 1.6865 293° West  Level Estimated
02:07AM 64.9077 1.4085 293° West  Level Estimated
02:08AM 64.9560 1.1294 292° West  Level Estimated
02:09AM 65.0039 0.8493 292° West  Level Estimated
02:10AM 65.0512 0.5683 292° West  Level Estimated
02:11AM 65.0981 0.2862 292° West  Level Estimated
02:12AM 65.1443 0.0031 291° West  Level Estimated
02:13AM 65.1901 -0.2809 291° West  Level Estimated
02:14AM 65.2353 -0.5659 291° West  Level Estimated
02:15AM 65.2799 -0.8519 291° West  Level Estimated
02:16AM 65.3241 -1.1389 290° West  Level Estimated
02:17AM 65.3676 -1.4268 290° West  Level Estimated
02:18AM 65.4107 -1.7156 290° West  Level Estimated
02:19AM 65.4531 -2.0055 290° West  Level Estimated
02:20AM 65.4950 -2.2962 289° West  Level Estimated
02:21AM 65.5364 -2.5879 289° West  Level Estimated
02:22AM 65.5772 -2.8805 289° West  Level Estimated
02:23AM 65.6174 -3.1739 288° West  Level Estimated
02:24AM 65.6571 -3.4683 288° West  Level Estimated
02:25AM 65.6962 -3.7636 288° West  Level Estimated
02:26AM 65.7347 -4.0598 288° West  Level Estimated
02:27AM 65.7726 -4.3569 287° West  Level Estimated
02:28AM 65.8100 -4.6548 287° West  Level Estimated
02:29AM 65.8467 -4.9536 287° West  Level Estimated
02:30AM 65.8829 -5.2533 287° West  Level Estimated
02:31AM 65.9186 -5.5537 286° West  Level Estimated
02:32AM 65.9536 -5.8551 286° West  Level Estimated
02:33AM 65.9880 -6.1572 286° West  Level Estimated
02:34AM 66.0219 -6.4601 285° West  Level Estimated
02:35AM 66.0551 -6.7639 285° West  Level Estimated
02:36AM 66.0878 -7.0684 285° West  Level Estimated
02:37AM 66.1198 -7.3737 285° West  Level Estimated
02:38AM 66.1512 -7.6798 284° West  Level Estimated
02:39AM 66.1821 -7.9866 284° West  Level Estimated
02:40AM 66.2123 -8.2941 284° West  Level Estimated
02:41AM 66.2419 -8.6024 284° West  Level Estimated
02:42AM 66.2709 -8.9114 283° West  Level Estimated
02:43AM 66.2993 -9.2212 283° West  Level Estimated
02:44AM 66.3271 -9.5316 283° West  Level Estimated
02:45AM 66.3542 -9.8427 282° West  Level Estimated
02:46AM 66.3808 -10.1544 282° West  Level Estimated
02:47AM 66.4066 -10.4668 282° West  Level Estimated
02:48AM 66.4319 -10.7799 282° West  Level Estimated
02:49AM 66.4566 -11.0935 281° West  Level Estimated
02:50AM 66.4806 -11.4078 281° West  Level Estimated
02:51AM 66.5040 -11.7227 281° West  Level Estimated
02:52AM 66.5267 -12.0382 280° West  Level Estimated
02:53AM 66.5489 -12.3542 280° West  Level Estimated
02:54AM 66.5703 -12.6708 280° West  Level Estimated
02:55AM 66.5912 -12.9879 280° West  Level Estimated
02:56AM 66.6114 -13.3056 279° West  Level Estimated
02:57AM 66.6309 -13.6238 279° West  Level Estimated
02:58AM 66.6498 -13.9424 279° West  Level Estimated
02:59AM 66.6681 -14.2616 278° West  Level Estimated
03:00AM 66.6857 -14.5812 278° West  Level Estimated
03:01AM 66.7027 -14.9012 278° West  Level Estimated
03:02AM 66.7190 -15.2217 277° West  Level Estimated
03:03AM 66.7347 -15.5426 277° West  Level Estimated
03:04AM 66.7497 -15.8639 277° West  Level Estimated
03:05AM 66.7641 -16.1856 277° West  Level Estimated
03:06AM 66.7778 -16.5076 276° West  Level Estimated
03:07AM 66.7908 -16.8300 276° West  Level Estimated
03:08AM 66.8032 -17.1528 276° West  Level Estimated
03:09AM 66.8150 -17.4758 275° West  Level Estimated
03:10AM 66.8260 -17.7992 275° West  Level Estimated
03:11AM 66.8364 -18.1228 275° West  Level Estimated
03:12AM 66.8462 -18.4467 275° West  Level Estimated
03:13AM 66.8553 -18.7709 274° West  Level Estimated
03:14AM 66.8637 -19.0953 274° West  Level Estimated
03:15AM 66.8715 -19.4199 274° West  Level Estimated
03:16AM 66.8786 -19.7447 273° West  Level Estimated
03:17AM 66.8850 -20.0696 273° West  Level Estimated
03:18AM 66.8907 -20.3948 273° West  Level Estimated
03:19AM 66.8959 -20.7201 272° West  Level Estimated
03:20AM 66.9003 -21.0455 272° West  Level Estimated
03:21AM 66.9040 -21.3710 272° West  Level Estimated
03:22AM 66.9071 -21.6966 272° West  Level Estimated
03:23AM 66.9096 -22.0223 271° West  Level Estimated
03:24AM 66.9113 -22.3480 271° West  Level Estimated
03:25AM 66.9124 -22.6738 271° West  Level Estimated
03:26AM 66.9128 -22.9996 270° West  Level Estimated
03:27AM 66.9126 -23.3254 270° West  Level Estimated
03:28AM 66.9117 -23.6512 270° West  Level Estimated
03:29AM 66.9101 -23.9769 269° West  Level Estimated
03:30AM 66.9079 -24.3026 269° West  Level Estimated
03:31AM 66.9049 -24.6283 269° West  Level Estimated
03:32AM 66.9014 -24.9538 269° West  Level Estimated
03:33AM 66.8971 -25.2792 268° West  Level Estimated
03:34AM 66.8922 -25.6046 268° West  Level Estimated
03:35AM 66.8866 -25.9298 268° West  Level Estimated
03:36AM 66.8804 -26.2548 267° West  Level Estimated
03:37AM 66.8734 -26.5796 267° West  Level Estimated
03:38AM 66.8659 -26.9043 267° West  Level Estimated
03:39AM 66.8576 -27.2287 266° West  Level Estimated
03:40AM 66.8487 -27.5529 266° West  Level Estimated
03:41AM 66.8391 -27.8769 266° West  Level Estimated
03:42AM 66.8289 -28.2006 266° West  Level Estimated
03:43AM 66.8180 -28.5240 265° West  Level Estimated
03:44AM 66.8065 -28.8472 265° West  Level Estimated
03:45AM 66.7943 -29.1700 265° West  Level Estimated
03:46AM 66.7814 -29.4925 264° West  Level Estimated
03:47AM 66.7679 -29.8146 264° West  Level Estimated
03:48AM 66.7537 -30.1364 264° West  Level Estimated
03:49AM 66.7388 -30.4578 263° West  Level Estimated
03:50AM 66.7234 -30.7789 263° West  Level Estimated
03:51AM 66.7072 -31.0994 263° West  Level Estimated
03:52AM 66.6904 -31.4196 263° West  Level Estimated
03:53AM 66.6730 -31.7393 262° West  Level Estimated
03:54AM 66.6549 -32.0586 262° West  Level Estimated
03:55AM 66.6361 -32.3774 262° West  Level Estimated
03:56AM 66.6168 -32.6957 261° West  Level Estimated
03:57AM 66.5967 -33.0135 261° West  Level Estimated
03:58AM 66.5761 -33.3308 261° West  Level Estimated
03:59AM 66.5548 -33.6475 261° West  Level Estimated
04:00AM 66.5328 -33.9637 260° West  Level Estimated
04:01AM 66.5102 -34.2793 260° West  Level Estimated
04:02AM 66.4870 -34.5944 260° West  Level Estimated
04:03AM 66.4632 -34.9088 259° West  Level Estimated
04:04AM 66.4387 -35.2227 259° West  Level Estimated
04:05AM 66.4136 -35.5359 259° West  Level Estimated
04:06AM 66.3878 -35.8485 259° West  Level Estimated
04:07AM 66.3615 -36.1604 258° West  Level Estimated
04:08AM 66.3345 -36.4717 258° West  Level Estimated
04:09AM 66.3069 -36.7823 258° West  Level Estimated
04:10AM 66.2787 -37.0922 257° West  Level Estimated
04:11AM 66.2498 -37.4014 257° West  Level Estimated
04:12AM 66.2204 -37.7099 257° West  Level Estimated
04:13AM 66.1903 -38.0176 257° West  Level Estimated
04:14AM 66.1597 -38.3246 256° West  Level Estimated
04:15AM 66.1284 -38.6309 256° West  Level Estimated
04:16AM 66.0965 -38.9364 256° West  Level Estimated
04:17AM 66.0640 -39.2412 255° West  Level Estimated
04:18AM 66.0309 -39.5451 255° West  Level Estimated
04:19AM 65.9973 -39.8483 255° West  Level Estimated
04:20AM 65.9630 -40.1507 255° West  Level Estimated
04:21AM 65.9281 -40.4522 254° West  Level Estimated
04:22AM 65.8927 -40.7529 254° West  Level Estimated
04:23AM 65.8566 -41.0528 254° West  Level Estimated
04:24AM 65.8200 -41.3518 253° West  Level Estimated
04:25AM 65.7828 -41.6500 253° West  Level Estimated
04:26AM 65.7450 -41.9473 253° West  Level Estimated
04:27AM 65.7066 -42.2437 253° West  Level Estimated
04:28AM 65.6677 -42.5392 252° West  Level Estimated
04:29AM 65.6282 -42.8339 252° West  Level Estimated
04:30AM 65.5881 -43.1276 252° West  Level Estimated
04:31AM 65.5475 -43.4204 252° West  Level Estimated
04:32AM 65.5063 -43.7124 251° West  Level Estimated
04:33AM 65.4645 -44.0034 251° West  Level Estimated
04:34AM 65.4222 -44.2934 251° West  Level Estimated
04:35AM 65.3793 -44.5825 251° West  Level Estimated
04:36AM 65.3359 -44.8707 250° West  Level Estimated
04:37AM 65.2919 -45.1579 250° West  Level Estimated
04:38AM 65.2474 -45.4442 250° West  Level Estimated
04:39AM 65.2024 -45.7294 249° West  Level Estimated
04:40AM 65.1568 -46.0137 249° West  Level Estimated
04:41AM 65.1106 -46.2971 249° West  Level Estimated
04:42AM 65.0640 -46.5794 249° West  Level Estimated
04:43AM 65.0168 -46.8607 248° West  Level Estimated
04:44AM 64.9691 -47.1411 248° West  Level Estimated
04:45AM 64.9208 -47.4204 248° West  Level Estimated
04:46AM 64.8720 -47.6987 248° West  Level Estimated
04:47AM 64.8228 -47.9761 247° West  Level Estimated
04:48AM 64.7730 -48.2524 247° West  Level Estimated
04:49AM 64.7226 -48.5276 247° West  Level Estimated
04:50AM 64.6718 -48.8019 247° West  Level Estimated
04:51AM 64.6205 -49.0751 246° West  Level Estimated
04:52AM 64.5687 -49.3473 246° West  Level Estimated
04:53AM 64.5163 -49.6184 246° West  Level Estimated
04:54AM 64.4635 -49.8885 246° West  Level Estimated
04:55AM 64.4102 -50.1576 245° Southwest  Level Estimated
04:56AM 64.3564 -50.4256 245° Southwest  Level Estimated
04:57AM 64.3021 -50.6926 245° Southwest  Level Estimated
04:58AM 64.2473 -50.9585 245° Southwest  Level Estimated
04:59AM 64.1920 -51.2233 244° Southwest  Level Estimated
05:00AM 64.1363 -51.4871 244° Southwest  Level Estimated
05:01AM 64.0801 -51.7498 244° Southwest  Level Estimated
05:02AM 64.0234 -52.0115 244° Southwest  Level Estimated
05:03AM 63.9663 -52.2721 244° Southwest  Level Estimated
05:04AM 63.9086 -52.5316 243° Southwest  Level Estimated
05:05AM 63.8506 -52.7901 243° Southwest  Level Estimated
05:06AM 63.7920 -53.0475 243° Southwest  Level Estimated
05:07AM 63.7226 -53.3489 243° Southwest  Level Estimated
05:07AM 65.7290 -55.2320 243° Southwest 439 505 36,000  Level FlightAware
05:08AM 65.6870 -55.3640 232° Southwest 439 505 36,000  Level FlightAware
05:09AM 65.6440 -55.4960 232° Southwest 439 505 36,000  Level FlightAware
05:09AM 65.6020 -55.6280 232° Southwest 439 505 36,000  Level FlightAware
05:10AM 65.5590 -55.7590 232° Southwest 439 505 36,000  Level FlightAware
05:11AM 65.5060 -55.9240 232° Southwest 439 505 36,000  Level FlightAware
05:11AM 65.4640 -56.0550 232° Southwest 439 505 36,000  Level FlightAware
05:12AM 65.4210 -56.1860 232° Southwest 439 505 36,000  Level FlightAware
05:13AM 65.2833 -56.5667 232° Southwest 440 506 36,000  Level Montreal Center
05:14AM 65.2167 -56.7333 226° Southwest 440 506 36,000  Level Montreal Center
05:15AM 65.1167 -57.0000 228° Southwest 440 506 36,000  Level Montreal Center
05:16AM 65.0500 -57.2167 234° Southwest 430 495 36,000  Level Montreal Center
05:17AM 64.9500 -57.4333 223° Southwest 440 506 36,000  Level Montreal Center
05:18AM 64.8833 -57.6500 234° Southwest 440 506 36,000  Level Montreal Center
05:19AM 64.8167 -57.8500 232° Southwest 440 506 36,000  Level Montreal Center
05:20AM 64.7333 -58.0667 228° Southwest 440 506 36,000  Level Montreal Center
05:21AM 64.6500 -58.3000 230° Southwest 440 506 36,000  Level Montreal Center
05:22AM 64.5667 -58.5000 226° Southwest 440 506 36,000  Level Montreal Center
05:23AM 64.4833 -58.7167 228° Southwest 430 495 36,000  Level Montreal Center
05:24AM 64.4167 -58.9500 237° Southwest 440 506 36,000  Level Montreal Center
05:25AM 64.3500 -59.2167 240° Southwest 440 506 36,000  Level Gander Center
05:26AM 64.2667 -59.4167 226° Southwest 440 506 36,000  Level Gander Center
05:27AM 64.1833 -59.6500 231° Southwest 440 506 36,000  Level Gander Center
05:28AM 64.0833 -59.7833 210° Southwest 430 495 36,000  Level Montreal Center
05:29AM 64.0333 -59.9667 238° Southwest 440 506 36,000  Level Montreal Center
05:30AM 63.9667 -60.1667 233° Southwest 440 506 36,000  Level Montreal Center
05:31AM 63.8667 -60.4500 231° Southwest 430 495 36,000  Level Montreal Center
05:32AM 63.8167 -60.5833 230° Southwest 430 495 36,000  Level Montreal Center
05:33AM 63.7500 -60.8167 237° Southwest 430 495 36,000  Level Montreal Center
05:34AM 63.6833 -61.0500 237° Southwest 430 495 36,000  Level Montreal Center
05:35AM 63.6167 -61.2333 231° Southwest 430 495 36,000  Level Montreal Center
05:36AM 63.5333 -61.4667 231° Southwest 440 506 36,000  Level Montreal Center
05:37AM 63.4667 -61.6833 236° Southwest 430 495 36,000  Level Montreal Center
05:38AM 63.3833 -61.9167 232° Southwest 440 506 36,000  Level Montreal Center
05:39AM 63.3167 -62.1333 236° Southwest 440 506 36,000  Level Montreal Center
05:40AM 63.2333 -62.3333 227° Southwest 440 506 36,000  Level Montreal Center
05:41AM 63.1667 -62.5833 240° Southwest 440 506 36,000  Level Montreal Center
05:42AM 63.0833 -62.8167 232° Southwest 440 506 36,000  Level Montreal Center
05:43AM 63.0167 -63.0333 236° Southwest 430 495 36,000  Level Montreal Center
05:44AM 62.9500 -63.2500 236° Southwest 440 506 36,000  Level Montreal Center
05:45AM 62.8833 -63.4500 234° Southwest 440 506 36,000  Level Montreal Center
05:46AM 62.8167 -63.6667 236° Southwest 430 495 36,000  Level Montreal Center
05:47AM 62.7333 -63.8833 230° Southwest 440 506 36,000  Level Montreal Center
05:48AM 62.6833 -64.1333 247° West 430 495 36,000  Level Montreal Center
05:49AM 62.6167 -64.3333 234° Southwest 430 495 36,000  Level Montreal Center
05:50AM 62.5500 -64.5500 236° Southwest 430 495 36,000  Level Montreal Center
05:51AM 62.4667 -64.7667 230° Southwest 440 506 36,000  Level Montreal Center
05:52AM 62.4000 -65.0000 238° Southwest 440 506 36,000  Level Montreal Center
05:53AM 62.3333 -65.2167 237° Southwest 440 506 36,000  Level Montreal Center
05:54AM 62.2667 -65.4167 234° Southwest 440 506 36,000  Level Montreal Center
05:55AM 62.1833 -65.6167 228° Southwest 430 495 36,000  Level Montreal Center
05:56AM 62.1167 -65.8333 237° Southwest 430 495 36,000  Level Montreal Center
05:57AM 62.0500 -66.0333 235° Southwest 440 506 36,000  Level Montreal Center
05:58AM 61.9833 -66.2333 235° Southwest 430 495 36,000  Level Montreal Center
05:59AM 61.9167 -66.4667 239° Southwest 440 506 36,000  Level Montreal Center
06:00AM 61.8167 -66.6667 223° Southwest 440 506 36,000  Level Montreal Center
06:01AM 61.7500 -66.9167 241° Southwest 440 506 36,000  Level Montreal Center
06:02AM 61.6833 -67.0667 227° Southwest 440 506 36,000  Level Montreal Center
06:03AM 61.6000 -67.2667 229° Southwest 440 506 36,000  Level Montreal Center
06:04AM 61.5000 -67.4333 219° Southwest 440 506 36,000  Level Montreal Center
06:05AM 61.4333 -67.6333 235° Southwest 440 506 36,000  Level Montreal Center
06:06AM 61.3333 -67.8000 219° Southwest 440 506 36,000  Level Montreal Center
06:07AM 61.2500 -68.0000 229° Southwest 440 506 36,000  Level Montreal Center
06:08AM 61.1667 -68.1500 221° Southwest 440 506 36,000  Level Montreal Center
06:09AM 61.0667 -68.3500 224° Southwest 440 506 36,000  Level Montreal Center
06:10AM 60.9833 -68.5500 229° Southwest 450 518 36,000  Level Montreal Center
06:11AM 60.9000 -68.7000 221° Southwest 450 518 36,000  Level Montreal Center
06:12AM 60.8000 -68.9000 224° Southwest 450 518 36,000  Level Montreal Center
06:13AM 60.7167 -69.0833 227° Southwest 440 506 36,000  Level Montreal Center
06:14AM 60.6167 -69.2500 219° Southwest 450 518 36,000  Level Montreal Center
06:15AM 60.5500 -69.4333 234° Southwest 440 506 36,000  Level Montreal Center
06:16AM 60.4500 -69.5833 217° Southwest 440 506 36,000  Level Montreal Center
06:17AM 60.3667 -69.7833 230° Southwest 450 518 36,000  Level Montreal Center
06:18AM 60.2667 -69.9333 217° Southwest 440 506 36,000  Level Montreal Center
06:19AM 60.2000 -70.1167 234° Southwest 440 506 36,000  Level Montreal Center
06:20AM 60.1000 -70.3000 222° Southwest 450 518 36,000  Level Montreal Center
06:21AM 60.0000 -70.4500 217° Southwest 450 518 36,000  Level Montreal Center
06:22AM 59.9167 -70.6333 228° Southwest 450 518 36,000  Level Montreal Center
06:23AM 59.8167 -70.8167 223° Southwest 450 518 36,000  Level Montreal Center
06:24AM 59.7167 -70.9667 217° Southwest 450 518 36,000  Level Montreal Center
06:25AM 59.6167 -71.1167 217° Southwest 450 518 36,000  Level Montreal Center
06:26AM 59.5167 -71.2500 214° Southwest 450 518 36,000  Level Montreal Center
06:27AM 59.4000 -71.4000 213° Southwest 450 518 36,000  Level Montreal Center
06:28AM 59.3000 -71.5500 217° Southwest 460 529 36,000  Level Montreal Center
06:29AM 59.2167 -71.7000 223° Southwest 460 529 36,000  Level Montreal Center
06:30AM 59.1000 -71.8333 210° Southwest 450 518 36,000  Level Montreal Center
06:31AM 59.0000 -71.9833 218° Southwest 460 529 36,000  Level Montreal Center
06:32AM 58.8833 -72.1167 211° Southwest 460 529 36,000  Level Montreal Center
06:33AM 58.7833 -72.2667 218° Southwest 460 529 36,000  Level Montreal Center
06:34AM 58.6833 -72.4000 215° Southwest 460 529 36,000  Level Montreal Center
06:35AM 58.5833 -72.5500 218° Southwest 460 529 36,000  Level Montreal Center
06:36AM 58.4833 -72.7167 221° Southwest 460 529 36,000  Level Montreal Center
06:37AM 58.3667 -72.8500 211° Southwest 460 529 36,000  Level Montreal Center
06:38AM 58.2667 -72.9833 215° Southwest 460 529 36,000  Level Montreal Center
06:39AM 58.1500 -73.1167 211° Southwest 460 529 36,000  Level Montreal Center
06:40AM 58.0500 -73.2667 218° Southwest 460 529 36,000  Level Montreal Center
06:41AM 57.9333 -73.4000 211° Southwest 460 529 36,000  Level Montreal Center
06:42AM 57.8500 -73.5333 220° Southwest 460 529 36,000  Level Montreal Center
06:43AM 57.7333 -73.6667 211° Southwest 460 529 36,000  Level Montreal Center
06:44AM 57.6333 -73.8000 216° Southwest 460 529 36,000  Level Montreal Center
06:45AM 57.5333 -73.9500 219° Southwest 460 529 36,000  Level Montreal Center
06:46AM 57.4167 -74.0833 212° Southwest 460 529 36,000  Level Montreal Center
06:47AM 57.3167 -74.2167 216° Southwest 460 529 36,000  Level Montreal Center
06:48AM 57.2000 -74.3500 212° Southwest 460 529 36,000  Level Montreal Center
06:49AM 57.1000 -74.4667 212° Southwest 460 529 36,000  Level Montreal Center
06:50AM 56.9833 -74.6000 212° Southwest 460 529 36,000  Level Montreal Center
06:51AM 56.8833 -74.7333 216° Southwest 460 529 36,000  Level Montreal Center
06:52AM 56.7667 -74.8833 215° Southwest 460 529 36,000  Level Montreal Center
06:53AM 56.6500 -75.0167 212° Southwest 470 541 36,000  Level Montreal Center
06:54AM 56.5500 -75.1333 213° Southwest 470 541 36,000  Level Montreal Center
06:55AM 56.4333 -75.2667 212° Southwest 470 541 36,000  Level Montreal Center
06:56AM 56.3333 -75.3833 213° Southwest 470 541 36,000  Level Montreal Center
06:57AM 56.2167 -75.5000 209° Southwest 470 541 36,000  Level Montreal Center
06:58AM 56.1000 -75.6333 213° Southwest 470 541 36,000  Level Montreal Center
06:59AM 56.0000 -75.7833 220° Southwest 470 541 36,000  Level Montreal Center
07:00AM 55.9000 -75.9000 213° Southwest 460 529 36,000  Level Montreal Center
07:01AM 55.7833 -76.0167 209° Southwest 460 529 36,000  Level Montreal Center
07:02AM 55.6833 -76.1333 213° Southwest 470 541 36,000  Level Montreal Center
07:03AM 55.5667 -76.2667 213° Southwest 470 541 36,000  Level Montreal Center
07:04AM 55.4667 -76.3833 213° Southwest 460 529 36,000  Level Montreal Center
07:05AM 55.3500 -76.5167 213° Southwest 470 541 36,000  Level Montreal Center
07:06AM 55.2167 -76.6333 207° Southwest 470 541 36,000  Level Montreal Center
07:07AM 55.1000 -76.7500 210° Southwest 470 541 36,000  Level Montreal Center
07:08AM 55.0000 -76.8667 214° Southwest 470 541 36,000  Level Montreal Center
07:09AM 54.8833 -77.0167 217° Southwest 470 541 36,000  Level Montreal Center
07:10AM 54.7833 -77.1333 214° Southwest 470 541 36,000  Level Montreal Center
07:11AM 54.6667 -77.2500 210° Southwest 460 529 36,000  Level Montreal Center
07:12AM 54.5667 -77.3500 210° Southwest 460 529 36,000  Level Montreal Center
07:13AM 54.4667 -77.4667 214° Southwest 460 529 36,000  Level Montreal Center
07:14AM 54.3333 -77.5833 207° Southwest 460 529 36,000  Level Montreal Center
07:15AM 54.2333 -77.6833 210° Southwest 460 529 36,000  Level Montreal Center
07:16AM 54.1167 -77.8000 210° Southwest 460 529 36,000  Level Montreal Center
07:17AM 54.0167 -77.9167 214° Southwest 460 529 36,000  Level Montreal Center
07:18AM 53.9000 -78.0167 207° Southwest 460 529 36,000  Level Montreal Center
07:19AM 53.8000 -78.1333 215° Southwest 460 529 36,000  Level Montreal Center
07:20AM 53.6833 -78.2333 207° Southwest 450 518 36,000  Level Montreal Center
07:21AM 53.5667 -78.3500 211° Southwest 450 518 36,000  Level Montreal Center
07:22AM 53.4667 -78.4833 218° Southwest 450 518 36,000  Level Montreal Center
07:23AM 53.3667 -78.5833 211° Southwest 460 529 36,000  Level Montreal Center
07:24AM 53.2500 -78.7000 211° Southwest 460 529 36,000  Level Montreal Center
07:25AM 53.1167 -78.8000 204° Southwest 460 529 36,000  Level Montreal Center
07:26AM 53.0167 -78.9000 211° Southwest 460 529 36,000  Level Montreal Center
07:27AM 52.9000 -79.0000 207° Southwest 460 529 36,000  Level Montreal Center
07:28AM 52.8000 -79.1167 215° Southwest 460 529 36,000  Level Montreal Center
07:29AM 52.6833 -79.2167 207° Southwest 460 529 36,000  Level Montreal Center
07:30AM 52.5667 -79.3167 208° Southwest 450 518 36,000  Level Montreal Center
07:31AM 52.4667 -79.4167 211° Southwest 450 518 36,000  Level Montreal Center
07:32AM 52.3667 -79.5167 211° Southwest 450 518 36,000  Level Montreal Center
07:33AM 52.2333 -79.6167 205° Southwest 450 518 36,000  Level Montreal Center
07:34AM 52.1333 -79.7167 212° Southwest 450 518 36,000  Level Montreal Center
07:35AM 52.0167 -79.8500 215° Southwest 450 518 36,000  Level Montreal Center
07:36AM 51.9167 -79.9167 202° Southwest 450 518 36,000  Level Montreal Center
07:37AM 51.8000 -80.0167 208° Southwest 450 518 36,000  Level Montreal Center
07:38AM 51.7000 -80.1500 220° Southwest 460 529 36,000  Level Montreal Center
07:39AM 51.5833 -80.2500 208° Southwest 450 518 36,000  Level Montreal Center
07:40AM 51.4667 -80.3500 208° Southwest 450 518 36,000  Level Montreal Center
07:41AM 51.3667 -80.4500 212° Southwest 450 518 36,000  Level Montreal Center
07:42AM 51.2500 -80.5333 204° Southwest 450 518 36,000  Level Montreal Center
07:43AM 51.1500 -80.6333 212° Southwest 450 518 36,000  Level Montreal Center
07:44AM 51.0167 -80.7333 205° Southwest 450 518 36,000  Level Montreal Center
07:45AM 50.9167 -80.8333 212° Southwest 440 506 36,000  Level Montreal Center
07:46AM 50.8333 -80.9000 207° Southwest 440 506 36,000  Level Montreal Center
07:47AM 50.7000 -81.0167 209° Southwest 440 506 36,000  Level Montreal Center
07:48AM 50.6000 -81.0833 203° Southwest 440 506 36,000  Level Montreal Center
07:49AM 50.4833 -81.1833 209° Southwest 440 506 36,000  Level Montreal Center
07:50AM 50.3833 -81.2667 208° Southwest 440 506 36,000  Level Montreal Center
07:51AM 50.2667 -81.3667 209° Southwest 440 506 36,000  Level Montreal Center
07:52AM 50.1667 -81.4500 208° Southwest 450 518 36,000  Level Montreal Center
07:53AM 50.0333 -81.5500 206° Southwest 450 518 36,000  Level Montreal Center
07:54AM 49.9333 -81.6333 208° Southwest 450 518 36,000  Level Montreal Center
07:55AM 49.8333 -81.7333 213° Southwest 450 518 36,000  Level Montreal Center
07:56AM 49.7167 -81.8167 205° Southwest 450 518 36,000  Level Montreal Center
07:57AM 49.6000 -81.9167 209° Southwest 450 518 36,000  Level Montreal Center
07:58AM 49.5000 -82.0000 208° Southwest 450 518 36,000  Level Montreal Center
07:59AM 49.3833 -82.1000 209° Southwest 450 518 36,000  Level Montreal Center
08:00AM 49.2667 -82.1500 196° South 460 529 36,000  Level Toronto Center
08:01AM 49.1500 -82.2500 209° Southwest 450 518 36,000 420 Level Toronto Center
08:02AM 49.0333 -82.3500 209° Southwest 450 518 36,900 960 Climbing Toronto Center
08:03AM 48.9333 -82.4167 204° Southwest 450 518 38,000 540 Climbing Toronto Center
08:04AM 48.8167 -82.5333 213° Southwest 450 518 38,000  Level Montreal Center
08:05AM 48.7000 -82.6167 205° Southwest 450 518 38,000  Level Montreal Center
08:11AM 48.0250 -83.1400 205° Southwest 443 510 38,000  Level FlightAware
08:12AM 47.9530 -83.1940 207° Southwest 446 513 38,000  Level FlightAware
08:13AM 47.8700 -83.2560 207° Southwest 449 517 38,000  Level FlightAware
08:13AM 47.7960 -83.3120 207° Southwest 452 520 38,000  Level FlightAware
08:14AM 47.7210 -83.3670 206° Southwest 452 520 38,000  Level FlightAware
08:15AM 47.6360 -83.4300 207° Southwest 446 513 38,000  Level FlightAware
08:15AM 47.5620 -83.4850 207° Southwest 443 510 38,000  Level FlightAware
08:16AM 47.4820 -83.5450 207° Southwest 444 511 38,000  Level FlightAware
08:17AM 47.4090 -83.5980 206° Southwest 443 510 38,000  Level FlightAware
08:18AM 47.3360 -83.6520 207° Southwest 444 511 38,000  Level FlightAware
08:18AM 47.2510 -83.7140 206° Southwest 440 506 38,000  Level FlightAware
08:19AM 47.1790 -83.7660 206° Southwest 437 503 38,000  Level FlightAware
08:20AM 47.1000 -83.8230 206° Southwest 427 491 38,000  Level FlightAware
08:20AM 47.0290 -83.8740 206° Southwest 423 487 38,000  Level FlightAware
08:21AM 46.9590 -83.9260 207° Southwest 426 490 38,000  Level FlightAware
08:22AM 46.8780 -83.9840 206° Southwest 427 491 38,000  Level FlightAware
08:22AM 46.8060 -84.0350 206° Southwest 426 490 38,000  Level FlightAware
08:23AM 46.7290 -84.0900 206° Southwest 423 487 38,000  Level FlightAware
08:24AM 46.6590 -84.1400 206° Southwest 424 488 38,000  Level FlightAware
08:25AM 46.5890 -84.1900 206° Southwest 425 489 38,000  Level FlightAware
08:25AM 46.5070 -84.2480 206° Southwest 426 490 38,000  Level FlightAware
08:26AM 46.4360 -84.2980 206° Southwest 427 491 38,000  Level FlightAware
08:27AM 46.3580 -84.3540 206° Southwest 428 493 38,000  Level FlightAware
08:27AM 46.2870 -84.4060 207° Southwest 428 493 38,000  Level FlightAware
08:28AM 46.2170 -84.4580 207° Southwest 427 491 38,000  Level FlightAware
08:29AM 46.1470 -84.5090 207° Southwest 428 493 38,000  Level FlightAware
08:29AM 46.0750 -84.5600 206° Southwest 429 494 38,000  Level FlightAware
08:30AM 45.9860 -84.6240 207° Southwest 431 496 38,000  Level FlightAware
08:31AM 45.9150 -84.6760 207° Southwest 433 498 38,000  Level FlightAware
08:32AM 45.8430 -84.7270 206° Southwest 434 499 38,000  Level FlightAware
08:32AM 45.7640 -84.7840 207° Southwest 433 498 38,000  Level FlightAware
08:33AM 45.6900 -84.8370 207° Southwest 433 498 38,000  Level FlightAware
08:34AM 45.6190 -84.8880 207° Southwest 434 499 38,000  Level FlightAware
08:34AM 45.5390 -84.9440 206° Southwest 434 499 38,000  Level FlightAware
08:35AM 45.4660 -84.9950 206° Southwest 429 494 38,000  Level FlightAware
08:36AM 45.3870 -85.0510 206° Southwest 425 489 38,000  Level FlightAware
08:36AM 45.3170 -85.1010 207° Southwest 425 489 38,000  Level FlightAware
08:37AM 45.2370 -85.1570 206° Southwest 423 487 38,000  Level FlightAware
08:38AM 45.1670 -85.2060 206° Southwest 422 486 38,000  Level FlightAware
08:39AM 45.0990 -85.2530 206° Southwest 425 489 38,000  Level FlightAware
08:39AM 45.0180 -85.3090 206° Southwest 424 488 38,000  Level FlightAware
08:40AM 44.9460 -85.3590 206° Southwest 424 488 38,000  Level FlightAware
08:41AM 44.8670 -85.4140 206° Southwest 425 489 38,000  Level FlightAware
08:41AM 44.8070 -85.4550 206° Southwest 423 487 38,000  Level FlightAware
08:42AM 44.7290 -85.5080 206° Southwest 422 486 38,000  Level FlightAware
08:43AM 44.6520 -85.5670 209° Southwest 405 466 38,000  Level FlightAware
08:43AM 44.5920 -85.6280 216° Southwest 397 457 38,000  Level FlightAware
08:44AM 44.5260 -85.6960 216° Southwest 398 458 38,000  Level FlightAware
08:45AM 44.4740 -85.7500 217° Southwest 399 459 38,000  Level FlightAware
08:46AM 44.4060 -85.8200 216° Southwest 401 461 38,000  Level FlightAware
08:46AM 44.3390 -85.8870 216° Southwest 403 464 38,000  Level FlightAware
08:47AM 44.2790 -85.9490 217° Southwest 404 465 38,000  Level FlightAware
08:48AM 44.2090 -86.0200 216° Southwest 406 467 38,000  Level FlightAware
08:48AM 44.1510 -86.0780 216° Southwest 408 470 38,000  Level FlightAware
08:49AM 44.0870 -86.1430 216° Southwest 408 470 38,000  Level FlightAware
08:50AM 44.0200 -86.2100 216° Southwest 410 472 38,000  Level FlightAware
08:50AM 43.9590 -86.2720 216° Southwest 410 472 38,000  Level FlightAware
08:51AM 43.8900 -86.3400 215° Southwest 411 473 38,000  Level FlightAware
08:52AM 43.8280 -86.4020 216° Southwest 411 473 38,000  Level FlightAware
08:52AM 43.7750 -86.4550 216° Southwest 412 474 38,000  Level FlightAware
08:53AM 43.6960 -86.5340 216° Southwest 411 473 38,000  Level FlightAware
08:54AM 43.6350 -86.5940 215° Southwest 410 472 38,000  Level FlightAware
08:55AM 43.5640 -86.6640 216° Southwest 410 472 38,000  Level FlightAware
08:55AM 43.5100 -86.7170 215° Southwest 412 474 38,000  Level FlightAware
08:56AM 43.4410 -86.7850 216° Southwest 412 474 38,000  Level FlightAware
08:57AM 43.3710 -86.8530 215° Southwest 413 475 38,000  Level FlightAware
08:57AM 43.3210 -86.9030 216° Southwest 415 478 38,000  Level FlightAware
08:58AM 43.2260 -86.9950 215° Southwest 415 478 38,000  Level FlightAware
08:59AM 43.1510 -87.0680 215° Southwest 415 478 38,000  Level FlightAware
09:00AM 43.0910 -87.1260 215° Southwest 416 479 38,000  Level FlightAware
09:00AM 43.0310 -87.1830 215° Southwest 418 481 38,000  Level FlightAware
09:01AM 42.9560 -87.2560 215° Southwest 420 483 38,000  Level FlightAware
09:02AM 42.8950 -87.3140 215° Southwest 421 484 38,000  Level FlightAware
09:03AM 42.8310 -87.3760 215° Southwest 421 484 38,000  Level FlightAware
09:03AM 42.7640 -87.4400 215° Southwest 424 488 38,000  Level FlightAware
09:04AM 42.6940 -87.5060 215° Southwest 425 489 38,000  Level FlightAware
09:05AM 42.6200 -87.5770 215° Southwest 429 494 38,000  Level FlightAware
09:05AM 42.5540 -87.6390 215° Southwest 432 497 38,000  Level FlightAware
09:06AM 42.4810 -87.7080 215° Southwest 435 501 38,000  Level FlightAware
09:07AM 42.4170 -87.7690 215° Southwest 435 501 38,000  Level FlightAware
09:07AM 42.3580 -87.8240 215° Southwest 431 496 38,000  Level FlightAware
09:08AM 42.2760 -87.9010 215° Southwest 432 497 38,000  Level FlightAware
09:09AM 42.2080 -87.9650 215° Southwest 427 491 38,000  Level FlightAware
09:10AM 42.1490 -88.0270 218° Southwest 421 484 38,000  Level FlightAware
09:10AM 42.0860 -88.0930 218° Southwest 418 481 38,000  Level FlightAware
09:11AM 42.0190 -88.1630 218° Southwest 417 480 38,000  Level FlightAware
09:12AM 41.9520 -88.2330 218° Southwest 416 479 38,000  Level FlightAware
09:12AM 41.8900 -88.2970 218° Southwest 419 482 38,000  Level FlightAware
09:13AM 41.8180 -88.3710 217° Southwest 417 480 38,000  Level FlightAware
09:14AM 41.7580 -88.4310 217° Southwest 419 482 38,000  Level FlightAware
09:14AM 41.6860 -88.4720 203° Southwest 431 496 38,000  Level FlightAware
09:15AM 41.6050 -88.5100 199° South 430 495 38,000  Level FlightAware
09:16AM 41.5230 -88.5490 200° South 433 498 38,000  Level FlightAware
09:17AM 41.4520 -88.5900 203° Southwest 422 486 38,000  Level FlightAware
09:17AM 41.3770 -88.6500 211° Southwest 424 488 38,000  Level FlightAware
09:18AM 41.3120 -88.7020 211° Southwest 428 493 38,000  Level FlightAware
09:19AM 41.2380 -88.7680 214° Southwest 425 489 38,000  Level FlightAware
09:19AM 41.1740 -88.8280 215° Southwest 423 487 38,000  Level FlightAware
09:20AM 41.1090 -88.8870 214° Southwest 425 489 38,000  Level FlightAware
09:21AM 41.0420 -88.9480 214° Southwest 425 489 38,000  Level FlightAware
09:21AM 40.9770 -89.0200 220° Southwest 420 483 38,000  Level FlightAware
09:22AM 40.9160 -89.0920 222° Southwest 419 482 38,000  Level FlightAware
09:23AM 40.8520 -89.1690 222° Southwest 423 487 38,000  Level FlightAware
09:24AM 40.7880 -89.2460 222° Southwest 424 488 38,000  Level FlightAware
09:24AM 40.7280 -89.3170 222° Southwest 428 493 38,000  Level FlightAware
09:25AM 40.6680 -89.3810 219° Southwest 434 499 38,000  Level FlightAware
09:26AM 40.6040 -89.4460 218° Southwest 429 494 38,000  Level FlightAware
09:26AM 40.5330 -89.5180 218° Southwest 425 489 38,000  Level FlightAware
09:27AM 40.4640 -89.5870 217° Southwest 423 487 38,000  Level FlightAware
09:28AM 40.4040 -89.6490 218° Southwest 424 488 38,000  Level FlightAware
09:28AM 40.3390 -89.7140 217° Southwest 427 491 38,000  Level FlightAware
09:29AM 40.2660 -89.7870 217° Southwest 428 493 38,000  Level FlightAware
09:30AM 40.2080 -89.8440 217° Southwest 430 495 38,000  Level FlightAware
09:31AM 40.1400 -89.9130 218° Southwest 430 495 38,000  Level FlightAware
09:31AM 40.0700 -89.9820 217° Southwest 432 497 38,000  Level FlightAware
09:32AM 40.0060 -90.0470 218° Southwest 436 502 38,000  Level FlightAware
09:33AM 39.9340 -90.1170 217° Southwest 438 504 38,000  Level FlightAware
09:33AM 39.8760 -90.1750 218° Southwest 441 507 38,000  Level FlightAware
09:34AM 39.8000 -90.2500 217° Southwest 443 510 38,000  Level FlightAware
09:35AM 39.7540 -90.2950 217° Southwest 444 511 38,000  Level FlightAware
09:35AM 39.6700 -90.3780 217° Southwest 447 514 38,000  Level FlightAware
09:36AM 39.6090 -90.4370 217° Southwest 447 514 38,000  Level FlightAware
09:37AM 39.5250 -90.5180 217° Southwest 448 516 38,000  Level FlightAware
09:38AM 39.4470 -90.5950 217° Southwest 449 517 38,000  Level FlightAware
09:38AM 39.3760 -90.6630 217° Southwest 451 519 38,000  Level FlightAware
09:39AM 39.3100 -90.7250 216° Southwest 451 519 38,000  Level FlightAware
09:40AM 39.2290 -90.8060 218° Southwest 453 521 38,000  Level FlightAware
09:40AM 39.1730 -90.8590 216° Southwest 454 522 38,000  Level FlightAware
09:41AM 39.1050 -90.9230 216° Southwest 454 522 38,000  Level FlightAware
09:42AM 39.0250 -91.0000 217° Southwest 453 521 38,000  Level FlightAware
09:43AM 38.9520 -91.0710 217° Southwest 452 520 38,000  Level FlightAware
09:44AM 38.8640 -91.1550 217° Southwest 454 522 38,000  Level FlightAware
09:44AM 38.7910 -91.2220 216° Southwest 454 522 38,000  Level FlightAware
09:45AM 38.6840 -91.3250 217° Southwest 458 527 38,000  Level FlightAware
09:46AM 38.6170 -91.3890 217° Southwest 456 525 38,000  Level FlightAware
09:47AM 38.5400 -91.4610 216° Southwest 454 522 38,000  Level FlightAware
09:47AM 38.4820 -91.5140 216° Southwest 454 522 38,000  Level FlightAware
09:48AM 38.4250 -91.5680 217° Southwest 454 522 38,000  Level FlightAware
09:49AM 38.3670 -91.6220 216° Southwest 454 522 38,000  Level FlightAware
09:49AM 38.3090 -91.6750 216° Southwest 454 522 38,000  Level FlightAware
09:50AM 38.2370 -91.7420 216° Southwest 454 522 38,000  Level FlightAware
09:51AM 38.1790 -91.7950 216° Southwest 454 522 38,000  Level FlightAware
09:52AM 38.1210 -91.8490 216° Southwest 454 522 38,000  Level FlightAware
09:52AM 38.0630 -91.9020 216° Southwest 454 522 38,000  Level FlightAware
09:53AM 37.9020 -92.0540 217° Southwest 453 521 38,000  Level FlightAware
09:54AM 37.8360 -92.1150 216° Southwest 453 521 38,000  Level FlightAware
09:54AM 37.7780 -92.1680 216° Southwest 453 521 38,000  Level FlightAware
09:55AM 37.7210 -92.2210 216° Southwest 453 521 38,000  Level FlightAware
09:56AM 37.6480 -92.2870 216° Southwest 453 521 38,000  Level FlightAware
09:56AM 37.5910 -92.3400 216° Southwest 453 521 38,000  Level FlightAware
09:57AM 37.5330 -92.3930 216° Southwest 453 521 38,000  Level FlightAware
09:58AM 37.3790 -92.5310 215° Southwest 452 520 38,000  Level FlightAware
09:59AM 37.3080 -92.5940 215° Southwest 451 519 38,000  Level FlightAware
09:59AM 37.2460 -92.6510 216° Southwest 449 517 38,000  Level FlightAware
10:00AM 37.1600 -92.7280 216° Southwest 449 517 38,000  Level FlightAware
10:01AM 37.1010 -92.7810 216° Southwest 450 518 38,000  Level FlightAware
10:02AM 37.0190 -92.8540 215° Southwest 451 519 38,000  Level FlightAware
10:02AM 36.9590 -92.9070 215° Southwest 452 520 38,000  Level FlightAware
10:03AM 36.8960 -92.9630 215° Southwest 452 520 38,000  Level FlightAware
10:04AM 36.8060 -93.0430 215° Southwest 454 522 38,000  Level FlightAware
10:04AM 36.7490 -93.0950 216° Southwest 455 524 38,000  Level FlightAware
10:05AM 36.6740 -93.1600 215° Southwest 455 524 38,000  Level FlightAware
10:06AM 36.7300 -93.1110 35° Northeast 453 521 38,000  Level FlightAware
10:07AM 36.6600 -93.1720 215° Southwest 453 521 38,000  Level FlightAware
10:07AM 36.5100 -93.3050 215° Southwest 453 521 38,000  Level FlightAware
10:08AM 36.4370 -93.3680 215° Southwest 453 521 38,000  Level FlightAware
10:09AM 36.2910 -93.4960 215° Southwest 38,000  Level FlightAware
10:10AM 36.2100 -93.5670 215° Southwest 38,000  Level FlightAware
10:11AM 36.1990 -93.5760 213° Southwest 444 511 38,000  Level FlightAware
10:11AM 36.0340 -93.7190 215° Southwest 444 511 38,000  Level FlightAware
10:12AM 36.0480 -93.7070 35° Northeast 443 510 38,000  Level FlightAware
10:13AM 35.8710 -93.8600 215° Southwest 443 510 38,000  Level FlightAware
10:14AM 35.8010 -93.9200 215° Southwest 442 509 38,000  Level FlightAware
10:14AM 35.7140 -93.9940 215° Southwest 443 510 38,000  Level FlightAware
10:15AM 35.6450 -94.0520 214° Southwest 443 510 38,000  Level FlightAware
10:16AM 35.5870 -94.1000 214° Southwest 443 510 38,000  Level FlightAware
10:17AM 35.5060 -94.1720 216° Southwest 445 512 38,000  Level FlightAware
10:17AM 35.4370 -94.2290 214° Southwest 445 512 38,000  Level FlightAware
10:18AM 35.3390 -94.3260 219° Southwest 435 501 38,000  Level FlightAware
10:19AM 35.2780 -94.3920 221° Southwest 433 498 38,000  Level FlightAware
10:20AM 35.2190 -94.4560 222° Southwest 435 501 38,000  Level FlightAware
10:20AM 35.1500 -94.5310 222° Southwest 436 502 38,000  Level FlightAware
10:21AM 35.0910 -94.5950 222° Southwest 436 502 38,000  Level FlightAware
10:22AM 35.0250 -94.6670 222° Southwest 437 503 38,000  Level FlightAware
10:22AM 34.9620 -94.7350 222° Southwest 435 501 38,000  Level FlightAware
10:23AM 34.9020 -94.7990 221° Southwest 434 499 38,000  Level FlightAware
10:24AM 34.8400 -94.8650 221° Southwest 435 501 38,000  Level FlightAware
10:25AM 34.8150 -94.8920 222° Southwest 435 501 38,000  Level FlightAware
10:25AM 34.7500 -94.9610 221° Southwest 435 501 38,000  Level FlightAware
10:26AM 34.6190 -95.1030 222° Southwest 438 504 38,000  Level FlightAware
10:27AM 34.5500 -95.1750 221° Southwest 437 503 38,000  Level FlightAware
10:28AM 34.4870 -95.2420 221° Southwest 437 503 38,000 -120 Level FlightAware
10:28AM 34.4280 -95.3050 221° Southwest 438 504 37,900 -1,200 Descending FlightAware
10:29AM 34.3590 -95.3780 221° Southwest 440 506 36,300 -2,520 Descending FlightAware
10:30AM 34.2980 -95.4420 221° Southwest 441 507 34,400 -3,120 Descending FlightAware
10:30AM 34.2440 -95.4990 221° Southwest 444 511 32,400 -3,360 Descending FlightAware
10:31AM 34.1660 -95.5810 221° Southwest 448 516 29,700 -2,820 Descending FlightAware
10:32AM 34.1070 -95.6430 221° Southwest 436 502 28,200 -2,400 Descending FlightAware
10:32AM 34.0380 -95.7150 221° Southwest 426 490 26,300 -2,520 Descending FlightAware
10:33AM 33.9780 -95.7780 221° Southwest 418 481 24,700 -2,400 Descending FlightAware
10:34AM 33.9120 -95.8460 221° Southwest 409 471 22,900 -2,340 Descending FlightAware
10:35AM 33.8550 -95.9060 221° Southwest 399 459 21,400 -2,280 Descending FlightAware
10:35AM 33.7990 -95.9640 221° Southwest 389 448 19,900 -2,160 Descending FlightAware
10:36AM 33.7400 -96.0250 221° Southwest 379 436 18,400 -2,100 Descending FlightAware
10:37AM 33.6870 -96.0800 221° Southwest 371 427 17,000 -2,100 Descending FlightAware
10:37AM 33.6300 -96.1390 221° Southwest 365 420 15,500 -2,100 Descending FlightAware
10:38AM 33.5780 -96.1920 220° Southwest 360 414 14,100 -2,100 Descending FlightAware
10:39AM 33.5280 -96.2460 222° Southwest 355 409 12,700 -1,740 Descending FlightAware
10:39AM 33.4760 -96.3070 224° Southwest 331 381 11,700 -960 Descending FlightAware
10:40AM 33.4360 -96.3550 225° Southwest 301 346 11,400 -480 Descending FlightAware
10:41AM 33.3930 -96.4060 225° Southwest 269 310 11,100 -360 Descending FlightAware
10:42AM 33.3600 -96.4460 225° Southwest 258 297 10,900 -780 Descending FlightAware
10:42AM 33.3330 -96.4930 235° Southwest 264 304 10,100 -1,380 Descending FlightAware
10:43AM 33.3270 -96.5370 261° West 267 307 9,300 -1,320 Descending FlightAware
10:43AM 33.3230 -96.5710 262° West 265 305 8,900 -1,080 Descending FlightAware
10:43AM 33.3200 -96.5930 261° West 262 302 8,600 -1,080 Descending FlightAware
10:44AM 33.3140 -96.6350 260° West 255 293 8,100 -1,140 Descending FlightAware
10:44AM 33.3100 -96.6700 262° West 253 291 7,600 -1,860 Descending FlightAware
10:45AM 33.3060 -96.7100 263° West 246 283 6,400 -2,700 Descending FlightAware
10:45AM 33.3040 -96.7320 264° West 251 289 5,600 -2,580 Descending FlightAware
10:45AM 33.3010 -96.7670 264° West 264 304 4,700 -1,980 Descending FlightAware
10:46AM 33.2980 -96.7910 262° West 271 312 4,300 -840 Descending FlightAware
10:46AM 33.2940 -96.8330 264° West 243 280 4,100 -240 Descending FlightAware
10:47AM 33.2920 -96.8590 265° West 228 262 4,100  Level FlightAware
10:47AM 33.2890 -96.8990 265° West 225 259 4,100  Level FlightAware
10:48AM 33.2850 -96.9370 263° West 223 257 4,100  Level FlightAware
10:48AM 33.2830 -96.9690 266° West 220 253 4,100  Level FlightAware
10:49AM 33.2810 -97.0010 266° West 221 254 4,100  Level FlightAware
10:49AM 33.2670 -97.0320 242° Southwest 173 199 4,100  Level FlightAware
10:49AM 33.2490 -97.0450 211° Southwest 170 196 4,100  Level FlightAware
10:50AM 33.2350 -97.0520 203° Southwest 151 174 4,100  Level FlightAware
10:50AM 33.2130 -97.0530 182° South 145 167 4,100  Level FlightAware
10:51AM 33.1930 -97.0530 180° South 149 171 4,100  Level FlightAware
10:51AM 33.1790 -97.0530 180° South 147 169 4,100  Level FlightAware
10:52AM 33.1650 -97.0530 180° South 146 168 4,100  Level FlightAware
10:52AM 33.1490 -97.0540 183° South 145 167 4,100  Level FlightAware
10:52AM 33.1270 -97.0540 180° South 145 167 4,100  Level FlightAware
10:53AM 33.1180 -97.0540 180° South 143 165 4,100  Level FlightAware
10:53AM 33.1010 -97.0540 180° South 146 168 4,100 -360 Level FlightAware
10:54AM 33.0820 -97.0540 180° South 147 169 3,800 -720 Descending FlightAware
10:54AM 33.0720 -97.0540 180° South 146 168 3,600 -840 Descending FlightAware
10:54AM 33.0500 -97.0540 180° South 146 168 3,200 -780 Descending FlightAware
10:55AM 33.0340 -97.0540 180° South 144 166 2,900 -720 Descending FlightAware
10:55AM 33.0260 -97.0540 180° South 147 169 2,800 -780 Descending FlightAware
10:55AM 33.0070 -97.0540 180° South 147 169 2,400 -840 Descending FlightAware
10:56AM 32.9870 -97.0540 180° South 136 157 2,000 -720 Descending FlightAware
10:56AM 32.9670 -97.0540 180° South 132 152 1,700 -540 Descending FlightAware
10:57AM 32.9600 -97.0540 180° South 123 142 1,600 -180 Descending FlightAware
10:57AM 32.9460 -97.0540 180° South 123 142 1,600  Level FlightAware
11:05AM 32.8968 -97.0380 177° South  Level Estimated